sensor_id;sensor_type;location;lat;lon;timestamp;P1;durP1;ratioP1;P2;durP2;ratioP2
9260;SDS011;4667;42.726;23.252;2023-03-12T00:52:36;3.23;;;2.93;;
9260;SDS011;4667;42.726;23.252;2023-03-12T00:55:22;2.93;;;2.70;;
9260;SDS011;4667;42.726;23.252;2023-03-12T06:16:47;2.90;;;2.70;;
9260;SDS011;4667;42.726;23.252;2023-03-12T06:24:40;1.87;;;1.77;;
9260;SDS011;4667;42.726;23.252;2023-03-12T06:27:12;2.63;;;2.43;;
9260;SDS011;4667;42.726;23.252;2023-03-12T06:48:39;2.20;;;2.10;;
9260;SDS011;4667;42.726;23.252;2023-03-12T06:51:42;2.70;;;2.50;;
9260;SDS011;4667;42.726;23.252;2023-03-12T08:07:31;2.63;;;2.43;;
9260;SDS011;4667;42.726;23.252;2023-03-12T08:09:59;2.97;;;2.00;;
9260;SDS011;4667;42.726;23.252;2023-03-12T08:12:30;3.23;;;2.30;;
9260;SDS011;4667;42.726;23.252;2023-03-12T08:15:01;3.53;;;2.67;;
9260;SDS011;4667;42.726;23.252;2023-03-12T08:17:46;2.73;;;2.53;;
9260;SDS011;4667;42.726;23.252;2023-03-12T08:20:27;2.67;;;2.47;;
9260;SDS011;4667;42.726;23.252;2023-03-12T08:23:12;2.33;;;2.13;;
9260;SDS011;4667;42.726;23.252;2023-03-12T08:25:53;1.83;;;1.73;;
9260;SDS011;4667;42.726;23.252;2023-03-12T08:28:20;1.83;;;1.73;;
9260;SDS011;4667;42.726;23.252;2023-03-12T08:31:01;2.27;;;2.00;;
9260;SDS011;4667;42.726;23.252;2023-03-12T08:33:41;2.70;;;2.30;;
9260;SDS011;4667;42.726;23.252;2023-03-12T08:36:22;1.87;;;1.57;;
9260;SDS011;4667;42.726;23.252;2023-03-12T08:39:11;2.50;;;2.27;;
9260;SDS011;4667;42.726;23.252;2023-03-12T08:41:39;1.80;;;1.70;;
9260;SDS011;4667;42.726;23.252;2023-03-12T08:44:08;1.70;;;1.60;;
9260;SDS011;4667;42.726;23.252;2023-03-12T08:46:44;2.23;;;2.10;;
9260;SDS011;4667;42.726;23.252;2023-03-12T09:07:31;2.47;;;2.27;;
9260;SDS011;4667;42.726;23.252;2023-03-12T09:10:12;8.30;;;2.13;;
9260;SDS011;4667;42.726;23.252;2023-03-12T09:15:48;2.40;;;2.20;;
9260;SDS011;4667;42.726;23.252;2023-03-12T09:18:29;3.07;;;2.37;;
9260;SDS011;4667;42.726;23.252;2023-03-12T09:20:57;2.20;;;2.00;;
9260;SDS011;4667;42.726;23.252;2023-03-12T09:23:47;2.33;;;2.10;;
9260;SDS011;4667;42.726;23.252;2023-03-12T09:26:13;2.87;;;2.67;;
9260;SDS011;4667;42.726;23.252;2023-03-12T09:28:49;2.37;;;2.07;;
9260;SDS011;4667;42.726;23.252;2023-03-12T09:31:30;2.47;;;2.27;;
9260;SDS011;4667;42.726;23.252;2023-03-12T09:34:10;2.03;;;1.93;;
9260;SDS011;4667;42.726;23.252;2023-03-12T09:36:51;1.87;;;1.77;;
9260;SDS011;4667;42.726;23.252;2023-03-12T09:53:32;2.67;;;1.97;;
9260;SDS011;4667;42.726;23.252;2023-03-12T09:56:02;2.23;;;1.93;;
9260;SDS011;4667;42.726;23.252;2023-03-12T09:58:33;2.13;;;1.93;;
9260;SDS011;4667;42.726;23.252;2023-03-12T10:01:05;2.20;;;1.90;;
9260;SDS011;4667;42.726;23.252;2023-03-12T10:03:41;1.80;;;1.70;;
9260;SDS011;4667;42.726;23.252;2023-03-12T10:06:14;1.67;;;1.50;;
9260;SDS011;4667;42.726;23.252;2023-03-12T10:08:49;1.57;;;1.47;;
9260;SDS011;4667;42.726;23.252;2023-03-12T10:11:23;1.90;;;1.80;;
9260;SDS011;4667;42.726;23.252;2023-03-12T10:13:56;2.80;;;1.80;;
9260;SDS011;4667;42.726;23.252;2023-03-12T10:19:11;1.80;;;1.70;;
9260;SDS011;4667;42.726;23.252;2023-03-12T10:21:40;2.97;;;2.20;;
9260;SDS011;4667;42.726;23.252;2023-03-12T10:24:15;3.07;;;1.90;;
9260;SDS011;4667;42.726;23.252;2023-03-12T10:26:53;2.80;;;1.70;;
9260;SDS011;4667;42.726;23.252;2023-03-12T10:29:21;2.47;;;1.80;;
9260;SDS011;4667;42.726;23.252;2023-03-12T10:31:51;3.10;;;1.87;;
9260;SDS011;4667;42.726;23.252;2023-03-12T10:34:20;1.90;;;1.80;;
9260;SDS011;4667;42.726;23.252;2023-03-12T10:36:49;2.07;;;1.70;;
9260;SDS011;4667;42.726;23.252;2023-03-12T10:39:19;3.73;;;1.60;;
9260;SDS011;4667;42.726;23.252;2023-03-12T10:41:59;2.70;;;2.00;;
9260;SDS011;4667;42.726;23.252;2023-03-12T10:44:25;2.20;;;1.73;;
9260;SDS011;4667;42.726;23.252;2023-03-12T10:46:55;2.53;;;2.33;;
9260;SDS011;4667;42.726;23.252;2023-03-12T10:49:25;2.10;;;1.80;;
9260;SDS011;4667;42.726;23.252;2023-03-12T10:51:53;1.90;;;1.80;;
9260;SDS011;4667;42.726;23.252;2023-03-12T11:00:16;2.03;;;1.93;;
9260;SDS011;4667;42.726;23.252;2023-03-12T11:02:46;1.93;;;1.80;;
9260;SDS011;4667;42.726;23.252;2023-03-12T11:05:21;2.30;;;1.77;;
9260;SDS011;4667;42.726;23.252;2023-03-12T11:07:48;2.27;;;1.70;;
9260;SDS011;4667;42.726;23.252;2023-03-12T11:10:24;2.07;;;1.90;;
9260;SDS011;4667;42.726;23.252;2023-03-12T11:12:54;2.43;;;1.60;;
9260;SDS011;4667;42.726;23.252;2023-03-12T11:15:23;1.87;;;1.70;;
9260;SDS011;4667;42.726;23.252;2023-03-12T11:17:50;1.37;;;1.23;;
9260;SDS011;4667;42.726;23.252;2023-03-12T11:23:05;1.77;;;1.60;;
9260;SDS011;4667;42.726;23.252;2023-03-12T11:25:38;1.83;;;1.67;;
9260;SDS011;4667;42.726;23.252;2023-03-12T11:28:04;1.73;;;1.50;;
9260;SDS011;4667;42.726;23.252;2023-03-12T11:30:34;2.73;;;1.83;;
9260;SDS011;4667;42.726;23.252;2023-03-12T11:33:01;1.60;;;1.33;;
9260;SDS011;4667;42.726;23.252;2023-03-12T11:35:31;1.40;;;1.20;;
9260;SDS011;4667;42.726;23.252;2023-03-12T11:38:01;2.43;;;1.90;;
9260;SDS011;4667;42.726;23.252;2023-03-12T11:40:33;1.60;;;1.50;;
9260;SDS011;4667;42.726;23.252;2023-03-12T11:43:11;1.93;;;1.63;;
9260;SDS011;4667;42.726;23.252;2023-03-12T11:45:53;2.50;;;1.73;;
9260;SDS011;4667;42.726;23.252;2023-03-12T11:48:27;1.40;;;1.30;;
9260;SDS011;4667;42.726;23.252;2023-03-12T11:51:01;2.33;;;1.77;;
9260;SDS011;4667;42.726;23.252;2023-03-12T11:53:35;2.23;;;1.70;;
9260;SDS011;4667;42.726;23.252;2023-03-12T11:56:11;5.87;;;2.07;;
9260;SDS011;4667;42.726;23.252;2023-03-12T11:58:51;2.83;;;2.20;;
9260;SDS011;4667;42.726;23.252;2023-03-12T12:01:23;1.80;;;1.70;;
9260;SDS011;4667;42.726;23.252;2023-03-12T12:06:38;3.33;;;1.90;;
9260;SDS011;4667;42.726;23.252;2023-03-12T12:09:12;1.90;;;1.80;;
9260;SDS011;4667;42.726;23.252;2023-03-12T12:11:48;2.47;;;2.20;;
9260;SDS011;4667;42.726;23.252;2023-03-12T12:14:22;1.50;;;1.40;;
9260;SDS011;4667;42.726;23.252;2023-03-12T12:17:00;1.70;;;1.60;;
9260;SDS011;4667;42.726;23.252;2023-03-12T12:19:33;2.43;;;1.60;;
9260;SDS011;4667;42.726;23.252;2023-03-12T12:22:05;1.60;;;1.50;;
9260;SDS011;4667;42.726;23.252;2023-03-12T12:24:36;1.70;;;1.60;;
9260;SDS011;4667;42.726;23.252;2023-03-12T12:27:08;2.40;;;2.20;;
9260;SDS011;4667;42.726;23.252;2023-03-12T12:29:43;1.80;;;1.70;;
9260;SDS011;4667;42.726;23.252;2023-03-12T12:32:18;2.40;;;2.13;;
9260;SDS011;4667;42.726;23.252;2023-03-12T12:37:40;1.70;;;1.60;;
9260;SDS011;4667;42.726;23.252;2023-03-12T12:40:11;2.10;;;1.90;;
9260;SDS011;4667;42.726;23.252;2023-03-12T12:42:44;1.90;;;1.80;;
9260;SDS011;4667;42.726;23.252;2023-03-12T12:45:12;2.00;;;1.80;;
9260;SDS011;4667;42.726;23.252;2023-03-12T12:47:41;3.13;;;1.87;;
9260;SDS011;4667;42.726;23.252;2023-03-12T12:50:12;2.63;;;2.30;;
9260;SDS011;4667;42.726;23.252;2023-03-12T12:52:40;2.10;;;1.80;;
9260;SDS011;4667;42.726;23.252;2023-03-12T12:55:10;1.87;;;1.67;;
9260;SDS011;4667;42.726;23.252;2023-03-12T12:57:38;1.83;;;1.73;;
9260;SDS011;4667;42.726;23.252;2023-03-12T13:00:19;1.83;;;1.60;;
9260;SDS011;4667;42.726;23.252;2023-03-12T13:02:54;1.73;;;1.60;;
9260;SDS011;4667;42.726;23.252;2023-03-12T13:05:24;2.63;;;2.13;;
9260;SDS011;4667;42.726;23.252;2023-03-12T13:07:51;2.40;;;2.20;;
9260;SDS011;4667;42.726;23.252;2023-03-12T13:13:09;1.40;;;1.30;;
9260;SDS011;4667;42.726;23.252;2023-03-12T13:15:37;1.60;;;1.47;;
9260;SDS011;4667;42.726;23.252;2023-03-12T13:18:16;2.13;;;1.70;;
9260;SDS011;4667;42.726;23.252;2023-03-12T13:20:44;1.47;;;1.37;;
9260;SDS011;4667;42.726;23.252;2023-03-12T13:25:59;1.60;;;1.50;;
9260;SDS011;4667;42.726;23.252;2023-03-12T13:28:33;2.37;;;1.97;;
9260;SDS011;4667;42.726;23.252;2023-03-12T13:31:00;2.03;;;1.60;;
9260;SDS011;4667;42.726;23.252;2023-03-12T13:33:39;2.17;;;1.93;;
9260;SDS011;4667;42.726;23.252;2023-03-12T13:36:10;1.83;;;1.60;;
9260;SDS011;4667;42.726;23.252;2023-03-12T13:38:57;2.20;;;1.73;;
9260;SDS011;4667;42.726;23.252;2023-03-12T13:41:32;1.73;;;1.30;;
9260;SDS011;4667;42.726;23.252;2023-03-12T13:46:48;1.97;;;1.77;;
9260;SDS011;4667;42.726;23.252;2023-03-12T13:49:36;2.63;;;2.07;;
9260;SDS011;4667;42.726;23.252;2023-03-12T13:52:11;2.23;;;1.40;;
9260;SDS011;4667;42.726;23.252;2023-03-12T13:54:43;1.47;;;1.37;;
9260;SDS011;4667;42.726;23.252;2023-03-12T13:57:12;2.20;;;1.70;;
9260;SDS011;4667;42.726;23.252;2023-03-12T13:59:47;2.13;;;1.60;;
9260;SDS011;4667;42.726;23.252;2023-03-12T14:02:23;2.23;;;1.50;;
9260;SDS011;4667;42.726;23.252;2023-03-12T14:04:52;2.67;;;2.17;;
9260;SDS011;4667;42.726;23.252;2023-03-12T14:07:25;1.40;;;1.30;;
9260;SDS011;4667;42.726;23.252;2023-03-12T14:09:57;3.43;;;1.87;;
9260;SDS011;4667;42.726;23.252;2023-03-12T14:12:30;1.50;;;1.40;;
9260;SDS011;4667;42.726;23.252;2023-03-12T14:15:05;2.70;;;1.60;;
9260;SDS011;4667;42.726;23.252;2023-03-12T14:17:36;1.63;;;1.53;;
9260;SDS011;4667;42.726;23.252;2023-03-12T14:20:09;1.60;;;1.50;;
9260;SDS011;4667;42.726;23.252;2023-03-12T14:22:37;3.07;;;2.30;;
9260;SDS011;4667;42.726;23.252;2023-03-12T14:25:05;1.70;;;1.60;;
9260;SDS011;4667;42.726;23.252;2023-03-12T14:27:49;2.53;;;1.63;;
9260;SDS011;4667;42.726;23.252;2023-03-12T14:30:18;1.40;;;1.13;;
9260;SDS011;4667;42.726;23.252;2023-03-12T14:32:47;2.27;;;1.60;;
9260;SDS011;4667;42.726;23.252;2023-03-12T14:35:32;2.00;;;1.70;;
9260;SDS011;4667;42.726;23.252;2023-03-12T14:38:01;2.40;;;2.03;;
9260;SDS011;4667;42.726;23.252;2023-03-12T14:40:32;1.77;;;1.63;;
9260;SDS011;4667;42.726;23.252;2023-03-12T14:43:01;1.83;;;1.60;;
9260;SDS011;4667;42.726;23.252;2023-03-12T14:45:27;1.93;;;1.70;;
9260;SDS011;4667;42.726;23.252;2023-03-12T14:47:55;2.03;;;1.60;;
9260;SDS011;4667;42.726;23.252;2023-03-12T14:50:23;1.83;;;1.30;;
9260;SDS011;4667;42.726;23.252;2023-03-12T14:52:53;1.77;;;1.63;;
9260;SDS011;4667;42.726;23.252;2023-03-12T14:55:21;1.97;;;1.43;;
9260;SDS011;4667;42.726;23.252;2023-03-12T14:57:48;2.07;;;1.80;;
9260;SDS011;4667;42.726;23.252;2023-03-12T15:00:25;2.10;;;1.70;;
9260;SDS011;4667;42.726;23.252;2023-03-12T15:02:53;1.77;;;1.67;;
9260;SDS011;4667;42.726;23.252;2023-03-12T15:05:20;2.30;;;2.10;;
9260;SDS011;4667;42.726;23.252;2023-03-12T15:07:48;1.73;;;1.53;;
9260;SDS011;4667;42.726;23.252;2023-03-12T15:10:19;2.80;;;1.90;;
9260;SDS011;4667;42.726;23.252;2023-03-12T15:12:46;3.53;;;2.00;;
9260;SDS011;4667;42.726;23.252;2023-03-12T15:15:22;1.77;;;1.63;;
9260;SDS011;4667;42.726;23.252;2023-03-12T15:17:50;2.53;;;2.00;;
9260;SDS011;4667;42.726;23.252;2023-03-12T15:20:17;3.30;;;2.07;;
9260;SDS011;4667;42.726;23.252;2023-03-12T15:22:44;4.27;;;2.93;;
9260;SDS011;4667;42.726;23.252;2023-03-12T15:25:21;4.07;;;3.17;;
9260;SDS011;4667;42.726;23.252;2023-03-12T15:28:21;2.20;;;2.00;;
9260;SDS011;4667;42.726;23.252;2023-03-12T15:31:07;3.00;;;2.03;;
9260;SDS011;4667;42.726;23.252;2023-03-12T15:39:00;3.50;;;2.00;;
9260;SDS011;4667;42.726;23.252;2023-03-12T15:41:41;4.13;;;2.30;;
9260;SDS011;4667;42.726;23.252;2023-03-12T15:44:23;2.30;;;2.10;;
9260;SDS011;4667;42.726;23.252;2023-03-12T15:46:55;1.90;;;1.80;;
9260;SDS011;4667;42.726;23.252;2023-03-12T15:49:24;3.07;;;2.30;;
9260;SDS011;4667;42.726;23.252;2023-03-12T15:52:23;2.70;;;2.13;;
9260;SDS011;4667;42.726;23.252;2023-03-12T15:55:00;3.93;;;3.13;;
9260;SDS011;4667;42.726;23.252;2023-03-12T15:57:28;3.53;;;2.63;;
9260;SDS011;4667;42.726;23.252;2023-03-12T16:00:05;2.50;;;2.30;;
9260;SDS011;4667;42.726;23.252;2023-03-12T16:02:36;2.87;;;2.00;;
9260;SDS011;4667;42.726;23.252;2023-03-12T16:05:04;3.20;;;2.90;;
9260;SDS011;4667;42.726;23.252;2023-03-12T16:07:31;3.57;;;2.33;;
9260;SDS011;4667;42.726;23.252;2023-03-12T16:09:59;2.27;;;2.07;;
9260;SDS011;4667;42.726;23.252;2023-03-12T16:12:27;3.80;;;2.40;;
9260;SDS011;4667;42.726;23.252;2023-03-12T16:15:04;5.00;;;2.63;;
9260;SDS011;4667;42.726;23.252;2023-03-12T16:17:35;2.90;;;2.57;;
9260;SDS011;4667;42.726;23.252;2023-03-12T16:20:15;2.13;;;2.00;;
9260;SDS011;4667;42.726;23.252;2023-03-12T16:23:05;3.53;;;2.23;;
9260;SDS011;4667;42.726;23.252;2023-03-12T16:25:40;2.93;;;2.70;;
9260;SDS011;4667;42.726;23.252;2023-03-12T16:28:18;2.20;;;1.97;;
9260;SDS011;4667;42.726;23.252;2023-03-12T16:30:48;3.70;;;2.53;;
9260;SDS011;4667;42.726;23.252;2023-03-12T16:33:15;3.20;;;2.50;;
9260;SDS011;4667;42.726;23.252;2023-03-12T16:35:44;5.20;;;2.80;;
9260;SDS011;4667;42.726;23.252;2023-03-12T16:38:11;6.77;;;3.50;;
9260;SDS011;4667;42.726;23.252;2023-03-12T16:40:38;4.87;;;2.80;;
9260;SDS011;4667;42.726;23.252;2023-03-12T16:43:06;6.03;;;2.63;;
9260;SDS011;4667;42.726;23.252;2023-03-12T16:45:38;3.10;;;2.23;;
9260;SDS011;4667;42.726;23.252;2023-03-12T16:48:12;3.07;;;2.77;;
9260;SDS011;4667;42.726;23.252;2023-03-12T16:50:39;3.30;;;2.10;;
9260;SDS011;4667;42.726;23.252;2023-03-12T16:53:05;2.23;;;2.00;;
9260;SDS011;4667;42.726;23.252;2023-03-12T16:55:39;2.97;;;2.30;;
9260;SDS011;4667;42.726;23.252;2023-03-12T16:58:09;2.73;;;2.53;;
9260;SDS011;4667;42.726;23.252;2023-03-12T17:00:38;2.80;;;2.57;;
9260;SDS011;4667;42.726;23.252;2023-03-12T17:03:04;3.23;;;2.93;;
9260;SDS011;4667;42.726;23.252;2023-03-12T17:05:35;3.17;;;2.73;;
9260;SDS011;4667;42.726;23.252;2023-03-12T17:08:02;3.97;;;2.70;;
9260;SDS011;4667;42.726;23.252;2023-03-12T17:10:35;3.00;;;2.80;;
9260;SDS011;4667;42.726;23.252;2023-03-12T17:13:01;7.50;;;3.50;;
9260;SDS011;4667;42.726;23.252;2023-03-12T17:15:28;2.40;;;2.20;;
9260;SDS011;4667;42.726;23.252;2023-03-12T17:17:57;3.13;;;2.83;;
9260;SDS011;4667;42.726;23.252;2023-03-12T17:20:29;2.63;;;2.43;;
9260;SDS011;4667;42.726;23.252;2023-03-12T17:23:13;2.93;;;2.73;;
9260;SDS011;4667;42.726;23.252;2023-03-12T17:25:55;2.77;;;2.50;;
9260;SDS011;4667;42.726;23.252;2023-03-12T17:28:30;4.47;;;2.43;;
9260;SDS011;4667;42.726;23.252;2023-03-12T17:30:59;3.03;;;2.77;;
9260;SDS011;4667;42.726;23.252;2023-03-12T17:33:42;2.70;;;2.50;;
9260;SDS011;4667;42.726;23.252;2023-03-12T17:36:09;2.87;;;2.67;;
9260;SDS011;4667;42.726;23.252;2023-03-12T17:38:37;3.17;;;2.47;;
9260;SDS011;4667;42.726;23.252;2023-03-12T17:41:04;3.07;;;2.63;;
9260;SDS011;4667;42.726;23.252;2023-03-12T17:43:32;3.33;;;2.57;;
9260;SDS011;4667;42.726;23.252;2023-03-12T17:46:02;2.50;;;2.30;;
9260;SDS011;4667;42.726;23.252;2023-03-12T17:48:29;3.07;;;2.87;;
9260;SDS011;4667;42.726;23.252;2023-03-12T17:50:57;3.27;;;3.00;;
9260;SDS011;4667;42.726;23.252;2023-03-12T17:53:26;4.23;;;3.57;;
9260;SDS011;4667;42.726;23.252;2023-03-12T17:55:54;3.30;;;2.67;;
9260;SDS011;4667;42.726;23.252;2023-03-12T17:58:20;3.33;;;3.03;;
9260;SDS011;4667;42.726;23.252;2023-03-12T18:00:47;5.73;;;3.40;;
9260;SDS011;4667;42.726;23.252;2023-03-12T18:03:14;3.53;;;3.23;;
9260;SDS011;4667;42.726;23.252;2023-03-12T18:05:40;3.27;;;2.53;;
9260;SDS011;4667;42.726;23.252;2023-03-12T18:08:09;3.83;;;2.30;;
9260;SDS011;4667;42.726;23.252;2023-03-12T18:10:39;3.70;;;2.97;;
9260;SDS011;4667;42.726;23.252;2023-03-12T18:13:07;3.50;;;3.17;;
9260;SDS011;4667;42.726;23.252;2023-03-12T18:15:35;5.40;;;3.23;;
9260;SDS011;4667;42.726;23.252;2023-03-12T18:18:02;3.47;;;3.10;;
9260;SDS011;4667;42.726;23.252;2023-03-12T18:20:29;4.87;;;3.47;;
9260;SDS011;4667;42.726;23.252;2023-03-12T18:22:56;4.10;;;3.70;;
9260;SDS011;4667;42.726;23.252;2023-03-12T18:25:23;3.50;;;3.20;;
9260;SDS011;4667;42.726;23.252;2023-03-12T18:27:50;3.50;;;3.17;;
9260;SDS011;4667;42.726;23.252;2023-03-12T18:30:18;4.43;;;3.67;;
9260;SDS011;4667;42.726;23.252;2023-03-12T18:32:55;4.53;;;4.10;;
9260;SDS011;4667;42.726;23.252;2023-03-12T18:35:35;4.97;;;4.37;;
9260;SDS011;4667;42.726;23.252;2023-03-12T18:38:02;6.37;;;4.13;;
9260;SDS011;4667;42.726;23.252;2023-03-12T18:40:30;7.07;;;4.63;;
9260;SDS011;4667;42.726;23.252;2023-03-12T18:43:00;7.10;;;4.07;;
9260;SDS011;4667;42.726;23.252;2023-03-12T18:45:29;5.70;;;4.13;;
9260;SDS011;4667;42.726;23.252;2023-03-12T18:47:55;7.57;;;3.87;;
9260;SDS011;4667;42.726;23.252;2023-03-12T18:50:26;3.60;;;3.07;;
9260;SDS011;4667;42.726;23.252;2023-03-12T18:52:56;4.97;;;3.70;;
9260;SDS011;4667;42.726;23.252;2023-03-12T18:55:23;6.70;;;3.37;;
9260;SDS011;4667;42.726;23.252;2023-03-12T18:57:51;6.10;;;4.57;;
9260;SDS011;4667;42.726;23.252;2023-03-12T19:00:18;6.63;;;3.43;;
9260;SDS011;4667;42.726;23.252;2023-03-12T19:02:47;3.40;;;3.10;;
9260;SDS011;4667;42.726;23.252;2023-03-12T19:05:17;3.80;;;3.27;;
9260;SDS011;4667;42.726;23.252;2023-03-12T19:07:45;3.23;;;2.90;;
9260;SDS011;4667;42.726;23.252;2023-03-12T19:10:12;4.83;;;3.47;;
9260;SDS011;4667;42.726;23.252;2023-03-12T19:12:39;5.77;;;3.77;;
9260;SDS011;4667;42.726;23.252;2023-03-12T19:15:07;2.93;;;2.70;;
9260;SDS011;4667;42.726;23.252;2023-03-12T19:17:34;7.47;;;3.60;;
9260;SDS011;4667;42.726;23.252;2023-03-12T19:20:08;3.20;;;2.97;;
9260;SDS011;4667;42.726;23.252;2023-03-12T19:22:39;4.23;;;3.17;;
9260;SDS011;4667;42.726;23.252;2023-03-12T19:25:07;8.20;;;5.27;;
9260;SDS011;4667;42.726;23.252;2023-03-12T19:27:47;4.83;;;2.97;;
9260;SDS011;4667;42.726;23.252;2023-03-12T19:30:20;3.50;;;3.30;;
9260;SDS011;4667;42.726;23.252;2023-03-12T19:32:46;4.33;;;3.93;;
9260;SDS011;4667;42.726;23.252;2023-03-12T19:35:32;4.93;;;4.03;;
9260;SDS011;4667;42.726;23.252;2023-03-12T19:38:01;4.67;;;3.43;;
9260;SDS011;4667;42.726;23.252;2023-03-12T19:40:30;4.37;;;3.63;;
9260;SDS011;4667;42.726;23.252;2023-03-12T19:43:11;6.20;;;4.00;;
9260;SDS011;4667;42.726;23.252;2023-03-12T19:45:47;5.87;;;4.23;;
9260;SDS011;4667;42.726;23.252;2023-03-12T19:48:14;4.87;;;4.33;;
9260;SDS011;4667;42.726;23.252;2023-03-12T19:50:43;5.43;;;4.87;;
9260;SDS011;4667;42.726;23.252;2023-03-12T19:53:11;5.07;;;3.80;;
9260;SDS011;4667;42.726;23.252;2023-03-12T19:55:44;4.63;;;4.07;;
9260;SDS011;4667;42.726;23.252;2023-03-12T19:58:13;5.53;;;4.60;;
9260;SDS011;4667;42.726;23.252;2023-03-12T20:00:40;5.60;;;3.30;;
9260;SDS011;4667;42.726;23.252;2023-03-12T20:03:08;5.47;;;3.07;;
9260;SDS011;4667;42.726;23.252;2023-03-12T20:05:48;3.93;;;3.27;;
9260;SDS011;4667;42.726;23.252;2023-03-12T20:08:15;4.83;;;4.17;;
9260;SDS011;4667;42.726;23.252;2023-03-12T20:10:44;6.20;;;4.27;;
9260;SDS011;4667;42.726;23.252;2023-03-12T20:13:12;4.73;;;4.07;;
9260;SDS011;4667;42.726;23.252;2023-03-12T20:15:42;3.67;;;3.37;;
9260;SDS011;4667;42.726;23.252;2023-03-12T20:18:11;3.57;;;3.27;;
9260;SDS011;4667;42.726;23.252;2023-03-12T20:20:38;6.47;;;4.53;;
9260;SDS011;4667;42.726;23.252;2023-03-12T20:23:20;6.83;;;3.17;;
9260;SDS011;4667;42.726;23.252;2023-03-12T20:25:48;5.87;;;3.63;;
9260;SDS011;4667;42.726;23.252;2023-03-12T20:28:17;4.90;;;3.50;;
9260;SDS011;4667;42.726;23.252;2023-03-12T20:30:45;5.47;;;4.97;;
9260;SDS011;4667;42.726;23.252;2023-03-12T20:33:21;3.80;;;3.03;;
9260;SDS011;4667;42.726;23.252;2023-03-12T20:35:52;4.07;;;3.50;;
9260;SDS011;4667;42.726;23.252;2023-03-12T20:38:46;4.27;;;3.27;;
9260;SDS011;4667;42.726;23.252;2023-03-12T20:41:17;4.10;;;3.70;;
9260;SDS011;4667;42.726;23.252;2023-03-12T20:43:45;7.17;;;4.63;;
9260;SDS011;4667;42.726;23.252;2023-03-12T20:46:13;8.97;;;4.10;;
9260;SDS011;4667;42.726;23.252;2023-03-12T20:48:40;5.40;;;4.03;;
9260;SDS011;4667;42.726;23.252;2023-03-12T20:51:20;5.83;;;4.03;;
9260;SDS011;4667;42.726;23.252;2023-03-12T20:56:46;5.07;;;3.33;;
9260;SDS011;4667;42.726;23.252;2023-03-12T20:59:14;5.23;;;3.97;;
9260;SDS011;4667;42.726;23.252;2023-03-12T21:01:44;6.03;;;3.47;;
9260;SDS011;4667;42.726;23.252;2023-03-12T21:04:26;4.03;;;3.20;;
9260;SDS011;4667;42.726;23.252;2023-03-12T21:06:59;7.43;;;4.33;;
9260;SDS011;4667;42.726;23.252;2023-03-12T21:09:48;3.93;;;3.53;;
9260;SDS011;4667;42.726;23.252;2023-03-12T21:12:17;3.23;;;3.03;;
9260;SDS011;4667;42.726;23.252;2023-03-12T21:14:45;3.63;;;3.33;;
9260;SDS011;4667;42.726;23.252;2023-03-12T21:17:26;5.57;;;3.97;;
9260;SDS011;4667;42.726;23.252;2023-03-12T21:20:02;3.60;;;3.30;;
9260;SDS011;4667;42.726;23.252;2023-03-12T21:22:43;4.03;;;3.30;;
9260;SDS011;4667;42.726;23.252;2023-03-12T21:25:11;5.03;;;3.30;;
9260;SDS011;4667;42.726;23.252;2023-03-12T21:30:40;5.60;;;3.53;;
9260;SDS011;4667;42.726;23.252;2023-03-12T21:33:19;3.40;;;3.10;;
9260;SDS011;4667;42.726;23.252;2023-03-12T21:35:51;4.17;;;3.77;;
9260;SDS011;4667;42.726;23.252;2023-03-12T21:38:19;4.57;;;3.50;;
9260;SDS011;4667;42.726;23.252;2023-03-12T21:40:55;3.87;;;3.27;;
9260;SDS011;4667;42.726;23.252;2023-03-12T21:43:29;4.17;;;3.20;;
9260;SDS011;4667;42.726;23.252;2023-03-12T21:49:02;7.17;;;4.17;;
9260;SDS011;4667;42.726;23.252;2023-03-12T21:51:43;3.93;;;3.53;;
9260;SDS011;4667;42.726;23.252;2023-03-12T21:54:29;4.47;;;4.03;;
9260;SDS011;4667;42.726;23.252;2023-03-12T21:57:09;3.53;;;3.23;;
9260;SDS011;4667;42.726;23.252;2023-03-12T21:59:38;4.47;;;4.07;;
9260;SDS011;4667;42.726;23.252;2023-03-12T22:02:30;5.33;;;4.13;;
9260;SDS011;4667;42.726;23.252;2023-03-12T22:05:16;5.20;;;4.17;;
9260;SDS011;4667;42.726;23.252;2023-03-12T22:07:42;3.80;;;3.50;;
9260;SDS011;4667;42.726;23.252;2023-03-12T22:10:26;4.70;;;4.13;;
9260;SDS011;4667;42.726;23.252;2023-03-12T22:13:03;4.63;;;3.83;;
9260;SDS011;4667;42.726;23.252;2023-03-12T22:15:30;3.27;;;3.07;;
9260;SDS011;4667;42.726;23.252;2023-03-12T22:17:58;4.23;;;3.03;;
9260;SDS011;4667;42.726;23.252;2023-03-12T22:20:32;3.47;;;3.20;;
9260;SDS011;4667;42.726;23.252;2023-03-12T22:23:02;3.73;;;3.33;;
9260;SDS011;4667;42.726;23.252;2023-03-12T22:25:38;3.30;;;3.10;;
9260;SDS011;4667;42.726;23.252;2023-03-12T22:28:08;3.87;;;3.57;;
9260;SDS011;4667;42.726;23.252;2023-03-12T22:30:36;3.10;;;2.90;;
9260;SDS011;4667;42.726;23.252;2023-03-12T22:33:02;4.40;;;3.47;;
9260;SDS011;4667;42.726;23.252;2023-03-12T22:35:32;5.40;;;3.77;;
9260;SDS011;4667;42.726;23.252;2023-03-12T22:38:02;3.97;;;3.60;;
9260;SDS011;4667;42.726;23.252;2023-03-12T22:40:30;3.33;;;3.03;;
9260;SDS011;4667;42.726;23.252;2023-03-12T22:42:56;3.63;;;3.30;;
9260;SDS011;4667;42.726;23.252;2023-03-12T22:45:23;6.30;;;3.67;;
9260;SDS011;4667;42.726;23.252;2023-03-12T22:47:49;5.03;;;4.40;;
9260;SDS011;4667;42.726;23.252;2023-03-12T22:50:16;3.83;;;3.13;;
9260;SDS011;4667;42.726;23.252;2023-03-12T22:52:44;3.37;;;3.07;;
9260;SDS011;4667;42.726;23.252;2023-03-12T22:55:11;3.20;;;2.73;;
9260;SDS011;4667;42.726;23.252;2023-03-12T22:57:38;4.60;;;3.13;;
9260;SDS011;4667;42.726;23.252;2023-03-12T23:00:08;3.70;;;2.70;;
9260;SDS011;4667;42.726;23.252;2023-03-12T23:02:39;4.23;;;3.27;;
9260;SDS011;4667;42.726;23.252;2023-03-12T23:05:06;4.00;;;3.03;;
9260;SDS011;4667;42.726;23.252;2023-03-12T23:07:34;4.57;;;3.13;;
9260;SDS011;4667;42.726;23.252;2023-03-12T23:10:03;2.97;;;2.77;;
9260;SDS011;4667;42.726;23.252;2023-03-12T23:12:29;3.87;;;3.57;;
9260;SDS011;4667;42.726;23.252;2023-03-12T23:14:56;4.00;;;3.00;;
9260;SDS011;4667;42.726;23.252;2023-03-12T23:17:24;3.33;;;3.13;;
9260;SDS011;4667;42.726;23.252;2023-03-12T23:19:51;3.40;;;3.10;;
9260;SDS011;4667;42.726;23.252;2023-03-12T23:22:17;3.60;;;3.30;;
9260;SDS011;4667;42.726;23.252;2023-03-12T23:24:44;4.10;;;3.23;;
9260;SDS011;4667;42.726;23.252;2023-03-12T23:27:12;3.33;;;3.03;;
9260;SDS011;4667;42.726;23.252;2023-03-12T23:29:38;3.60;;;2.47;;
9260;SDS011;4667;42.726;23.252;2023-03-12T23:32:06;4.00;;;3.20;;
9260;SDS011;4667;42.726;23.252;2023-03-12T23:34:33;3.87;;;3.57;;
9260;SDS011;4667;42.726;23.252;2023-03-12T23:37:01;3.30;;;3.00;;
9260;SDS011;4667;42.726;23.252;2023-03-12T23:39:27;5.93;;;4.37;;
9260;SDS011;4667;42.726;23.252;2023-03-12T23:41:54;4.87;;;3.67;;
9260;SDS011;4667;42.726;23.252;2023-03-12T23:44:23;4.00;;;3.30;;
9260;SDS011;4667;42.726;23.252;2023-03-12T23:46:49;4.07;;;3.67;;
9260;SDS011;4667;42.726;23.252;2023-03-12T23:49:16;5.50;;;4.37;;
9260;SDS011;4667;42.726;23.252;2023-03-12T23:51:43;3.97;;;3.10;;
9260;SDS011;4667;42.726;23.252;2023-03-12T23:54:09;5.17;;;3.23;;
9260;SDS011;4667;42.726;23.252;2023-03-12T23:56:36;5.07;;;3.50;;
9260;SDS011;4667;42.726;23.252;2023-03-12T23:59:04;4.37;;;3.93;;
